createdAt,value
2023-05-10T00:00:10.109Z,92229.22
2023-05-10T00:02:43.706Z,92225.53
2023-05-10T00:05:10.234Z,92238.16
2023-05-10T00:07:36.676Z,92234.47
2023-05-10T00:10:03.252Z,92229.22
2023-05-10T00:12:29.710Z,92232.91
2023-05-10T00:14:56.170Z,92238.16
2023-05-10T00:17:22.666Z,92235.47
2023-05-10T00:19:49.219Z,92230.38
2023-05-10T00:22:15.747Z,92228.59
2023-05-10T00:24:42.214Z,92238.94
2023-05-10T00:27:08.676Z,92237.03
2023-05-10T00:29:35.164Z,92246.56
2023-05-10T00:32:01.640Z,92246.28
2023-05-10T00:34:28.173Z,92248.13
2023-05-10T00:36:54.686Z,92248.41
2023-05-10T00:39:21.132Z,92247.22
2023-05-10T00:41:47.561Z,92247.03
2023-05-10T00:44:14.104Z,92245.44
2023-05-10T00:46:41.175Z,92248.44
2023-05-10T00:49:07.696Z,92243.44
2023-05-10T00:51:34.659Z,92249.75
2023-05-10T00:54:01.262Z,92248.50
2023-05-10T00:56:29.395Z,92253.47
2023-05-10T00:58:56.383Z,92242.63
2023-05-10T01:01:22.938Z,92252.88
2023-05-10T01:03:49.652Z,92249.19
2023-05-10T01:06:16.107Z,92254.41
2023-05-10T01:08:42.699Z,92253.75
2023-05-10T01:11:09.242Z,92265.81
2023-05-10T01:13:38.859Z,92261.72
2023-05-10T01:16:07.352Z,92257.53
2023-05-10T01:18:38.996Z,92263.69
2023-05-10T01:21:09.249Z,92263.44
2023-05-10T01:23:40.870Z,92261.38
2023-05-10T01:26:44.470Z,92268.91
2023-05-10T01:29:19.749Z,92267.81
2023-05-10T01:32:11.179Z,92265.81
2023-05-10T01:34:53.335Z,92273.94
2023-05-10T01:37:42.865Z,92275.34
2023-05-10T01:40:29.343Z,92276.53
2023-05-10T01:43:02.622Z,92278.03
2023-05-10T01:45:38.323Z,92276.94
2023-05-10T01:48:09.239Z,92275.56
2023-05-10T01:50:38.354Z,92276.56
2023-05-10T01:53:08.879Z,92284.53
2023-05-10T01:55:40.618Z,92283.47
2023-05-10T01:58:11.091Z,92285.53
2023-05-10T02:00:42.085Z,92289.44
2023-05-10T02:03:10.734Z,92289.69
2023-05-10T02:05:39.692Z,92298.34
2023-05-10T02:08:07.732Z,92305.69
2023-05-10T02:10:37.903Z,92297.75
2023-05-10T02:13:07.080Z,92302.44
2023-05-10T02:15:36.102Z,92296.06
2023-05-10T02:18:04.756Z,92299.97
2023-05-10T02:20:33.205Z,92303.69
2023-05-10T02:23:01.758Z,92309.75
2023-05-10T02:25:29.595Z,92307.09
2023-05-10T02:27:58.597Z,92310.28
2023-05-10T02:30:25.975Z,92307.66
2023-05-10T02:32:53.303Z,92303.69
2023-05-10T02:35:20.272Z,92308.16
2023-05-10T02:37:48.669Z,92308.94
2023-05-10T02:40:18.578Z,92311.56
2023-05-10T02:45:18.643Z,92308.72
2023-05-10T02:47:45.157Z,92306.63
2023-05-10T02:50:11.988Z,92313.97
2023-05-10T02:52:48.666Z,92309.84
2023-05-10T02:55:19.008Z,92307.78
2023-05-10T02:58:01.303Z,92312.53
2023-05-10T03:00:27.925Z,92314.66
2023-05-10T03:02:54.513Z,92306.78
2023-05-10T03:05:21.455Z,92312.56
2023-05-10T03:07:48.694Z,92308.72
2023-05-10T03:10:15.383Z,92309.63
2023-05-10T03:13:03.033Z,92303.53
2023-05-10T03:15:54.632Z,92312.44
2023-05-10T03:18:28.468Z,92314.31
2023-05-10T03:21:07.058Z,92317.44
2023-05-10T03:23:41.994Z,92320.34
2023-05-10T03:26:09.801Z,92309.59
2023-05-10T03:28:37.519Z,92317.94
2023-05-10T03:31:06.882Z,92316.63
2023-05-10T03:33:34.065Z,92314.88
2023-05-10T03:36:00.863Z,92310.59
2023-05-10T03:38:29.043Z,92319.88
2023-05-10T03:40:56.913Z,92315.50
2023-05-10T03:43:23.388Z,92326.03
2023-05-10T03:45:49.804Z,92321.59
2023-05-10T03:48:16.268Z,92322.34
2023-05-10T03:50:43.823Z,92322.84
2023-05-10T03:53:10.350Z,92314.94
2023-05-10T03:55:37.370Z,92317.06
2023-05-10T03:58:03.829Z,92320.81
2023-05-10T04:00:31.062Z,92317.63
2023-05-10T04:02:57.628Z,92313.38
2023-05-10T04:05:24.110Z,92315.44
2023-05-10T04:07:52.632Z,92316.56
2023-05-10T04:10:19.319Z,92324.13
2023-05-10T04:12:45.990Z,92330.97
2023-05-10T04:15:12.535Z,92330.97
2023-05-10T04:17:39.014Z,92331.69
2023-05-10T04:20:06.200Z,92336.94
2023-05-10T04:22:33.126Z,92340.38
2023-05-10T04:24:59.527Z,92337.78
2023-05-10T04:27:25.976Z,92343.81
2023-05-10T04:29:52.418Z,92340.09
2023-05-10T04:32:18.840Z,92344.31
2023-05-10T04:34:45.423Z,92338.97
2023-05-10T04:37:11.877Z,92342.19
2023-05-10T04:39:40.191Z,92342.72
2023-05-10T04:42:08.109Z,92340.94
2023-05-10T04:44:34.581Z,92348.56
2023-05-10T04:47:01.068Z,92342.81
2023-05-10T04:49:27.550Z,92339.72
2023-05-10T04:51:53.944Z,92338.66
2023-05-10T04:54:20.474Z,92341.50
2023-05-10T04:56:46.862Z,92344.44
2023-05-10T04:59:13.282Z,92342.34
2023-05-10T05:01:40.398Z,92351.22
2023-05-10T05:04:07.744Z,92340.97
2023-05-10T05:06:34.175Z,92348.56
2023-05-10T05:09:00.774Z,92354.81
2023-05-10T05:11:27.220Z,92354.16
2023-05-10T05:13:53.908Z,92353.06
2023-05-10T05:16:20.368Z,92355.63
2023-05-10T05:18:46.892Z,92357.72
2023-05-10T05:21:17.642Z,92368.69
2023-05-10T05:23:44.184Z,92363.16
2023-05-10T05:26:10.790Z,92364.16
2023-05-10T05:28:40.308Z,92371.22
2023-05-10T05:31:08.508Z,92369.66
2023-05-10T05:33:35.195Z,92376.00
2023-05-10T05:36:03.246Z,92378.56
2023-05-10T05:38:29.797Z,92381.19
2023-05-10T05:40:56.341Z,92381.69
2023-05-10T05:43:22.815Z,92380.56
2023-05-10T05:45:49.327Z,92377.09
2023-05-10T05:48:15.776Z,92381.81
2023-05-10T05:50:42.218Z,92381.31
2023-05-10T05:53:09.569Z,92391.03
2023-05-10T05:55:36.345Z,92390.81
2023-05-10T05:58:02.801Z,92379.56
2023-05-10T06:00:29.374Z,92388.97
2023-05-10T06:02:55.886Z,92381.97
2023-05-10T06:05:22.649Z,92383.41
2023-05-10T06:07:49.086Z,92376.00
2023-05-10T06:10:15.745Z,92386.66
2023-05-10T06:12:42.601Z,92387.00
2023-05-10T06:15:09.789Z,92395.56
2023-05-10T06:17:36.244Z,92389.44
2023-05-10T06:20:02.810Z,92385.69
2023-05-10T06:22:29.210Z,92392.00
2023-05-10T06:24:55.612Z,92396.31
2023-05-10T06:27:22.586Z,92398.69
2023-05-10T06:29:52.090Z,92399.13
2023-05-10T06:32:20.751Z,92398.84
2023-05-10T06:34:47.351Z,92404.69
2023-05-10T06:37:13.861Z,92410.06
2023-05-10T06:39:40.258Z,92408.88
2023-05-10T06:42:06.746Z,92408.31
2023-05-10T06:44:33.392Z,92403.22
2023-05-10T06:46:59.940Z,92414.63
2023-05-10T06:49:26.319Z,92412.50
2023-05-10T06:51:52.883Z,92425.75
2023-05-10T06:54:19.289Z,92420.84
2023-05-10T06:56:45.688Z,92423.13
2023-05-10T06:59:13.450Z,92421.16
2023-05-10T07:01:40.363Z,92426.69
2023-05-10T07:04:08.522Z,92421.00
2023-05-10T07:06:35.015Z,92431.31
2023-05-10T07:09:01.763Z,92433.78
2023-05-10T07:11:28.206Z,92427.13
2023-05-10T07:13:54.657Z,92428.38
2023-05-10T07:16:22.378Z,92430.94
2023-05-10T07:18:48.928Z,92424.94
2023-05-10T07:21:15.570Z,92426.44
2023-05-10T07:23:43.671Z,92419.16
2023-05-10T07:26:11.508Z,92425.88
2023-05-10T07:28:38.506Z,92427.19
2023-05-10T07:31:04.941Z,92421.63
2023-05-10T07:33:31.381Z,92426.81
2023-05-10T07:35:58.272Z,92426.59
2023-05-10T07:38:24.709Z,92433.59
2023-05-10T07:40:51.136Z,92447.50
2023-05-10T07:43:17.617Z,92446.63
2023-05-10T07:45:44.248Z,92449.75
2023-05-10T07:48:10.888Z,92440.41
2023-05-10T07:50:37.451Z,92443.13
2023-05-10T07:53:03.856Z,92442.44
2023-05-10T07:55:30.401Z,92444.81
2023-05-10T07:57:57.161Z,92458.22
2023-05-10T08:00:23.714Z,92451.88
2023-05-10T08:02:50.375Z,92447.31
2023-05-10T08:05:17.122Z,92470.41
2023-05-10T08:07:43.923Z,92450.88
2023-05-10T08:10:11.983Z,92448.94
2023-05-10T08:12:39.137Z,92459.78
2023-05-10T08:15:06.148Z,92466.28
2023-05-10T08:17:32.673Z,92455.88
2023-05-10T08:19:59.117Z,92455.91
2023-05-10T08:22:25.535Z,92459.56
2023-05-10T08:24:51.981Z,92459.44
2023-05-10T08:27:18.400Z,92456.53
2023-05-10T08:29:49.961Z,92452.56
2023-05-10T08:32:17.119Z,92461.38
2023-05-10T08:34:43.550Z,92460.69
2023-05-10T08:37:11.394Z,92462.25
2023-05-10T08:39:38.427Z,92476.34
2023-05-10T08:42:06.213Z,92464.50
2023-05-10T08:44:37.294Z,92475.38
2023-05-10T08:47:07.457Z,92470.69
2023-05-10T08:49:34.922Z,92469.91
2023-05-10T08:52:05.072Z,92464.84
2023-05-10T08:54:33.077Z,92476.84
2023-05-10T08:56:59.603Z,92472.25
2023-05-10T08:59:26.175Z,92472.34
2023-05-10T09:01:54.997Z,92471.91
2023-05-10T09:04:22.196Z,92473.25
2023-05-10T09:06:48.933Z,92460.72
2023-05-10T09:09:17.087Z,92462.59
2023-05-10T09:11:44.458Z,92461.75
2023-05-10T09:14:11.501Z,92463.56
2023-05-10T09:16:38.557Z,92464.41
2023-05-10T09:19:05.174Z,92461.44
2023-05-10T09:21:32.020Z,92460.22
2023-05-10T09:24:04.137Z,92453.91
2023-05-10T09:26:30.656Z,92459.97
2023-05-10T09:28:59.747Z,92456.09
2023-05-10T09:31:44.916Z,92463.25
2023-05-10T09:34:11.434Z,92464.31
2023-05-10T09:36:38.147Z,92467.84
2023-05-10T09:39:05.073Z,92466.19
2023-05-10T09:41:31.500Z,92469.41
2023-05-10T09:43:57.958Z,92465.91
2023-05-10T09:46:24.456Z,92470.25
2023-05-10T09:48:50.938Z,92467.28
2023-05-10T09:51:21.248Z,92472.00
2023-05-10T09:53:47.761Z,92479.34
2023-05-10T09:56:15.255Z,92479.63
2023-05-10T09:58:41.689Z,92483.44
2023-05-10T10:01:13.124Z,92471.53
2023-05-10T10:03:44.171Z,92471.47
2023-05-10T10:06:18.756Z,92474.06
2023-05-10T10:08:49.742Z,92479.34
2023-05-10T10:11:16.445Z,92496.69
2023-05-10T10:13:43.438Z,92508.56
2023-05-10T10:16:10.415Z,92515.69
2023-05-10T10:18:40.851Z,92520.56
2023-05-10T10:21:09.140Z,92517.22
2023-05-10T10:23:36.243Z,92520.56
2023-05-10T10:26:05.210Z,92537.22
2023-05-10T10:28:46.423Z,92525.25
2023-05-10T10:31:25.459Z,92531.25
2023-05-10T10:34:06.441Z,92524.34
2023-05-10T10:36:34.808Z,92531.53
2023-05-10T10:39:02.418Z,92528.16
2023-05-10T10:41:36.907Z,92537.63
2023-05-10T10:44:28.872Z,92539.53
2023-05-10T10:47:09.346Z,92540.06
2023-05-10T10:49:42.431Z,92536.94
2023-05-10T10:52:24.314Z,92532.78
2023-05-10T10:54:59.195Z,92530.34
2023-05-10T10:57:27.407Z,92533.81
2023-05-10T11:00:19.996Z,92532.81
2023-05-10T11:02:49.701Z,92521.97
2023-05-10T11:05:25.804Z,92514.16
2023-05-10T11:07:56.053Z,92524.38
2023-05-10T11:10:23.961Z,92514.13
2023-05-10T11:13:06.739Z,92520.13
2023-05-10T11:15:35.040Z,92521.47
2023-05-10T11:18:27.323Z,92509.78
2023-05-10T11:21:05.924Z,92522.34
2023-05-10T11:23:44.236Z,92516.91
2023-05-10T11:26:10.706Z,92507.06
2023-05-10T11:28:47.884Z,92514.78
2023-05-10T11:31:18.609Z,92510.19
2023-05-10T11:33:47.470Z,92508.59
2023-05-10T11:36:17.435Z,92511.94
2023-05-10T11:38:44.156Z,92511.56
2023-05-10T11:41:12.385Z,92510.09
2023-05-10T11:43:42.838Z,92520.66
2023-05-10T11:46:12.382Z,92507.22
2023-05-10T11:48:42.994Z,92506.41
2023-05-10T11:51:10.904Z,92502.28
2023-05-10T11:53:37.786Z,92504.97
2023-05-10T11:56:06.411Z,92499.59
2023-05-10T11:58:34.036Z,92506.88
2023-05-10T12:01:01.338Z,92508.47
2023-05-10T12:03:29.181Z,92510.91
2023-05-10T12:05:56.909Z,92509.91
2023-05-10T12:08:25.798Z,92502.91
2023-05-10T12:10:53.245Z,92497.69
2023-05-10T12:13:21.935Z,92497.78
2023-05-10T12:15:48.396Z,92512.66
2023-05-10T12:18:15.777Z,92504.84
2023-05-10T12:20:42.367Z,92503.84
2023-05-10T12:23:10.851Z,92508.38
2023-05-10T12:25:38.700Z,92505.16
2023-05-10T12:28:09.791Z,92497.94
2023-05-10T12:30:37.389Z,92497.03
2023-05-10T12:33:16.139Z,92500.25
2023-05-10T12:35:53.354Z,92502.16
2023-05-10T12:38:38.773Z,92493.84
2023-05-10T12:41:07.906Z,92492.22
2023-05-10T12:43:35.458Z,92499.28
2023-05-10T12:46:18.089Z,92498.31
2023-05-10T12:48:45.591Z,92503.28
2023-05-10T12:51:18.052Z,92499.41
2023-05-10T12:53:48.726Z,92508.78
2023-05-10T12:56:16.243Z,92508.81
2023-05-10T12:58:42.699Z,92507.53
2023-05-10T13:01:09.419Z,92509.19
2023-05-10T13:03:35.890Z,92496.94
2023-05-10T13:06:03.287Z,92493.41
2023-05-10T13:08:34.078Z,92500.06
2023-05-10T13:11:01.434Z,92503.22
2023-05-10T13:13:27.850Z,92500.25
2023-05-10T13:15:54.270Z,92499.50
2023-05-10T13:18:21.390Z,92503.00
2023-05-10T13:20:47.891Z,92501.34
2023-05-10T13:23:14.352Z,92495.69
2023-05-10T13:25:40.907Z,92501.53
2023-05-10T13:28:07.339Z,92496.03
2023-05-10T13:30:33.771Z,92491.50
2023-05-10T13:33:00.379Z,92496.25
2023-05-10T13:35:26.955Z,92489.81
2023-05-10T13:37:54.452Z,92499.69
2023-05-10T13:40:20.913Z,92503.69
2023-05-10T13:42:47.340Z,92498.69
2023-05-10T13:45:14.170Z,92505.47
2023-05-10T13:47:40.685Z,92525.25
2023-05-10T13:50:07.781Z,92548.91
2023-05-10T13:52:34.308Z,92527.59
2023-05-10T13:55:01.006Z,92520.59
2023-05-10T13:57:27.630Z,92523.53
2023-05-10T13:59:55.881Z,92530.78
2023-05-10T14:02:24.142Z,92523.88
2023-05-10T14:04:50.704Z,92519.59
2023-05-10T14:07:17.196Z,92511.72
2023-05-10T14:09:43.708Z,92531.03
2023-05-10T14:12:10.185Z,92515.38
2023-05-10T14:14:36.760Z,92512.34
2023-05-10T14:17:03.219Z,92509.78
2023-05-10T14:19:31.648Z,92511.44
2023-05-10T14:21:58.061Z,92505.97
2023-05-10T14:24:24.513Z,92519.66
2023-05-10T14:26:54.512Z,92506.16
2023-05-10T14:29:22.146Z,92509.81
2023-05-10T14:31:48.819Z,92501.88
2023-05-10T14:34:15.721Z,92501.06
2023-05-10T14:36:42.182Z,92497.13
2023-05-10T14:39:10.758Z,92498.78
2023-05-10T14:41:38.044Z,92498.38
2023-05-10T14:44:04.528Z,92498.16
2023-05-10T14:46:31.034Z,92496.78
2023-05-10T14:48:57.513Z,92503.03
2023-05-10T14:51:23.960Z,92502.91
2023-05-10T14:53:50.524Z,92496.69
2023-05-10T14:56:17.008Z,92495.34
2023-05-10T14:58:43.392Z,92505.44
2023-05-10T15:01:09.870Z,92501.13
2023-05-10T15:03:36.816Z,92503.03
2023-05-10T15:06:04.906Z,92492.38
2023-05-10T15:08:31.389Z,92501.44
2023-05-10T15:10:57.887Z,92499.72
2023-05-10T15:13:24.308Z,92499.88
2023-05-10T15:15:50.938Z,92498.41
2023-05-10T15:18:17.885Z,92501.44
2023-05-10T15:20:44.673Z,92503.50
2023-05-10T15:23:11.269Z,92504.19
2023-05-10T15:25:38.475Z,92508.06
2023-05-10T15:28:05.503Z,92502.94
2023-05-10T15:30:32.090Z,92502.44
2023-05-10T15:32:58.579Z,92500.44
2023-05-10T15:35:26.642Z,92498.13
2023-05-10T15:37:53.264Z,92511.50
2023-05-10T15:40:20.313Z,92512.69
2023-05-10T15:42:46.831Z,92510.22
2023-05-10T15:45:13.906Z,92502.03
2023-05-10T15:47:40.568Z,92498.84
2023-05-10T15:50:08.279Z,92495.75
2023-05-10T15:52:34.979Z,92505.06
2023-05-10T15:55:01.407Z,92499.50
2023-05-10T15:57:27.836Z,92516.22
2023-05-10T15:59:54.829Z,92503.31
2023-05-10T16:02:22.679Z,92516.09
2023-05-10T16:04:49.858Z,92513.88
2023-05-10T16:07:16.566Z,92511.66
2023-05-10T16:09:43.131Z,92528.00
2023-05-10T16:12:09.783Z,92526.63
2023-05-10T16:14:36.583Z,92510.72
2023-05-10T16:17:04.310Z,92511.22
2023-05-10T16:19:31.419Z,92524.13
2023-05-10T16:21:58.179Z,92521.75
2023-05-10T16:24:25.843Z,92527.38
2023-05-10T16:26:52.500Z,92518.38
2023-05-10T16:29:19.276Z,92515.09
2023-05-10T16:31:46.376Z,92519.38
2023-05-10T16:34:13.169Z,92524.97
2023-05-10T16:36:39.992Z,92515.06
2023-05-10T16:39:06.727Z,92519.16
2023-05-10T16:41:34.597Z,92517.34
2023-05-10T16:44:03.709Z,92523.00
2023-05-10T16:46:30.429Z,92534.44
2023-05-10T16:48:57.089Z,92522.16
2023-05-10T16:51:23.758Z,92516.78
2023-05-10T16:53:50.455Z,92524.69
2023-05-10T16:56:18.400Z,92530.09
2023-05-10T16:58:44.874Z,92524.84
2023-05-10T17:01:11.386Z,92521.56
2023-05-10T17:03:37.995Z,92528.59
2023-05-10T17:06:05.914Z,92527.72
2023-05-10T17:08:32.862Z,92534.59
2023-05-10T17:11:03.886Z,92532.34
2023-05-10T17:13:31.873Z,92549.50
2023-05-10T17:15:58.505Z,92542.56
2023-05-10T17:18:26.599Z,92549.81
2023-05-10T17:20:53.257Z,92556.78
2023-05-10T17:23:19.938Z,92563.06
2023-05-10T17:25:46.507Z,92558.75
2023-05-10T17:28:12.962Z,92561.31
2023-05-10T17:30:39.538Z,92566.84
2023-05-10T17:33:06.170Z,92568.66
2023-05-10T17:35:32.666Z,92571.28
2023-05-10T17:37:59.101Z,92566.28
2023-05-10T17:40:25.945Z,92564.47
2023-05-10T17:42:52.675Z,92572.16
2023-05-10T17:45:19.520Z,92565.38
2023-05-10T17:47:46.503Z,92569.25
2023-05-10T17:50:13.155Z,92567.38
2023-05-10T17:52:39.667Z,92567.56
2023-05-10T17:55:06.789Z,92566.66
2023-05-10T17:57:33.490Z,92567.75
2023-05-10T18:00:00.208Z,92565.59
2023-05-10T18:02:26.776Z,92567.16
2023-05-10T18:04:53.420Z,92570.84
2023-05-10T18:07:22.078Z,92567.28
2023-05-10T18:09:48.629Z,92564.44
2023-05-10T18:12:15.267Z,92573.16
2023-05-10T18:14:41.950Z,92572.66
2023-05-10T18:17:09.651Z,92566.66
2023-05-10T18:19:36.308Z,92562.16
2023-05-10T18:22:03.257Z,92568.09
2023-05-10T18:24:39.018Z,92555.47
2023-05-10T18:27:08.304Z,92562.34
2023-05-10T18:29:35.110Z,92565.03
2023-05-10T18:32:01.572Z,92566.66
2023-05-10T18:34:28.738Z,92561.38
2023-05-10T18:36:55.478Z,92561.16
2023-05-10T18:39:22.291Z,92561.72
2023-05-10T18:41:50.184Z,92560.97
2023-05-10T18:44:16.791Z,92565.25
2023-05-10T18:46:43.638Z,92573.16
2023-05-10T18:49:10.299Z,92568.38
2023-05-10T18:51:36.871Z,92571.28
2023-05-10T18:54:03.579Z,92572.56
2023-05-10T18:56:30.363Z,92578.88
2023-05-10T18:58:56.934Z,92568.63
2023-05-10T19:01:23.492Z,92574.72
2023-05-10T19:03:50.050Z,92574.22
2023-05-10T19:06:16.694Z,92574.28
2023-05-10T19:08:43.326Z,92582.16
2023-05-10T19:11:09.966Z,92576.66
2023-05-10T19:13:36.624Z,92577.97
2023-05-10T19:16:06.796Z,92581.16
2023-05-10T19:18:34.091Z,92585.13
2023-05-10T19:21:04.544Z,92588.59
2023-05-10T19:23:35.656Z,92594.91
2023-05-10T19:26:02.411Z,92598.56
2023-05-10T19:28:28.992Z,92598.31
2023-05-10T19:30:55.523Z,92601.47
2023-05-10T19:33:22.366Z,92608.59
2023-05-10T19:35:52.459Z,92608.59
2023-05-10T19:38:25.517Z,92604.13
2023-05-10T19:40:59.267Z,92601.50
2023-05-10T19:43:27.386Z,92610.19
2023-05-10T19:45:54.778Z,92605.19
2023-05-10T19:48:21.243Z,92614.41
2023-05-10T19:50:47.691Z,92609.66
2023-05-10T19:53:14.258Z,92608.63
2023-05-10T19:55:40.709Z,92601.81
2023-05-10T19:58:07.137Z,92600.75
2023-05-10T20:00:33.618Z,92598.13
2023-05-10T20:03:00.211Z,92603.41
2023-05-10T20:05:26.947Z,92607.34
2023-05-10T20:07:53.526Z,92602.88
2023-05-10T20:10:21.974Z,92607.63
2023-05-10T20:12:51.539Z,92609.97
2023-05-10T20:15:20.177Z,92607.88
2023-05-10T20:17:47.443Z,92606.84
2023-05-10T20:20:15.933Z,92604.47
2023-05-10T20:22:46.319Z,92610.78
2023-05-10T20:25:13.632Z,92613.41
2023-05-10T20:27:40.238Z,92606.31
2023-05-10T20:30:07.620Z,92613.44
2023-05-10T20:32:34.527Z,92611.31
2023-05-10T20:35:01.439Z,92608.69
2023-05-10T20:37:28.576Z,92613.13
2023-05-10T20:39:55.491Z,92607.63
2023-05-10T20:42:22.802Z,92604.47
2023-05-10T20:44:50.247Z,92606.31
2023-05-10T20:47:17.350Z,92614.44
2023-05-10T20:49:43.866Z,92605.28
2023-05-10T20:52:10.387Z,92601.31
2023-05-10T20:54:36.818Z,92603.69
2023-05-10T20:57:03.430Z,92595.28
2023-05-10T20:59:29.927Z,92602.63
2023-05-10T21:01:57.230Z,92599.75
2023-05-10T21:04:24.535Z,92593.19
2023-05-10T21:06:51.890Z,92596.06
2023-05-10T21:09:18.342Z,92593.44
2023-05-10T21:11:44.863Z,92585.81
2023-05-10T21:14:11.292Z,92589.22
2023-05-10T21:16:37.902Z,92587.66
2023-05-10T21:19:04.461Z,92577.16
2023-05-10T21:21:31.014Z,92578.72
2023-05-10T21:23:57.417Z,92588.19
2023-05-10T21:26:23.925Z,92590.28
2023-05-10T21:28:50.466Z,92587.91
2023-05-10T21:31:16.914Z,92587.09
2023-05-10T21:33:43.632Z,92585.53
2023-05-10T21:36:10.145Z,92587.63
2023-05-10T21:38:36.650Z,92589.47
2023-05-10T21:41:06.933Z,92585.03
2023-05-10T21:43:33.656Z,92587.94
2023-05-10T21:46:00.257Z,92587.91
2023-05-10T21:48:26.756Z,92585.81
2023-05-10T21:50:53.251Z,92577.94
2023-05-10T21:53:19.722Z,92585.28
2023-05-10T21:55:46.208Z,92579.78
2023-05-10T21:58:12.749Z,92583.69
2023-05-10T22:00:39.302Z,92584.50
2023-05-10T22:03:05.913Z,92580.84
2023-05-10T22:05:32.404Z,92572.72
2023-05-10T22:07:58.875Z,92570.06
2023-05-10T22:10:25.423Z,92577.41
2023-05-10T22:12:51.931Z,92581.34
2023-05-10T22:15:18.554Z,92581.34
2023-05-10T22:17:45.032Z,92580.31
2023-05-10T22:20:11.734Z,92583.69
2023-05-10T22:22:38.183Z,92573.22
2023-05-10T22:25:07.809Z,92577.44
2023-05-10T22:27:34.683Z,92579.78
2023-05-10T22:30:01.490Z,92577.16
2023-05-10T22:32:28.330Z,92582.38
2023-05-10T22:34:54.923Z,92575.31
2023-05-10T22:37:21.353Z,92574.25
2023-05-10T22:39:48.697Z,92573.47
2023-05-10T22:42:15.848Z,92577.13
2023-05-10T22:44:43.290Z,92567.69
2023-05-10T22:47:09.816Z,92568.47
2023-05-10T22:49:36.261Z,92567.44
2023-05-10T22:52:02.717Z,92577.13
2023-05-10T22:54:29.120Z,92572.94
2023-05-10T22:56:56.487Z,92568.75
2023-05-10T22:59:23.349Z,92565.06
2023-05-10T23:01:50.043Z,92564.03
2023-05-10T23:04:16.605Z,92560.88
2023-05-10T23:06:43.058Z,92570.28
2023-05-10T23:09:09.774Z,92571.38
2023-05-10T23:11:36.506Z,92575.56
2023-05-10T23:14:03.153Z,92571.09
2023-05-10T23:16:29.653Z,92568.22
2023-05-10T23:18:56.193Z,92571.38
2023-05-10T23:21:22.723Z,92562.97
2023-05-10T23:23:49.325Z,92566.59
2023-05-10T23:26:16.271Z,92567.13
2023-05-10T23:28:42.751Z,92567.94
2023-05-10T23:31:09.222Z,92577.63
2023-05-10T23:33:35.676Z,92570.56
2023-05-10T23:36:02.073Z,92568.22
2023-05-10T23:38:28.507Z,92572.91
2023-05-10T23:40:54.961Z,92570.28
2023-05-10T23:43:21.756Z,92566.88
2023-05-10T23:45:57.823Z,92571.34
2023-05-10T23:48:24.390Z,92572.63
2023-05-10T23:50:50.975Z,92573.94
2023-05-10T23:53:17.408Z,92567.41
2023-05-10T23:55:44.268Z,92562.69
2023-05-10T23:58:10.713Z,92566.59
